Aeroporto :
LOGIN :

Iscrizione | Disclaimer

   EN    FR    IT 

 










Sommario :    VFR   VFR Marginale   IFR   IFR Intensivo   IFR Molto Intensivo
Visibilità : 
Base nubi : 
>= 8 km
>= 3000ft
5 / 8 km
1000 / 3000 ft
1500m / 5 km
500 / 1000 ft
800 / 1500m
200 / 500 ft
< 800m
< 200 ft
Simboli :   Temporali  Nebbia  Neve Forte  Precipitazioni Forti  Vento > 20 kt
SIGMETs :   Varie  Temporali  Ghiacco  Turbolenza  Onda orograficha  Ceneri Vulcaniche






- Altitudine del aeroporto : 272 ft


EGWC - DCAE Cosford

ULTIMO METAR :
  • 141250Z 24010KT 9999 FEW022 SCT025 FEW030TCU 16/10 Q0998 RMK BLU

METARs OBSOLETI :
  • 141220Z AUTO 22008KT //// ///////// ///// Q////
  • 141150Z 23009KT 9999 7000E -SHRA FEW022CB SCT025 13/10 Q0999 RERA RMK WHT
  • 141120Z AUTO 25013G24KT //// ///////// ///// Q////
  • 141050Z 27007KT 9999 VCSH SCT022 15/09 Q0998 RMK WHT
  • 141020Z AUTO 22009KT //// ///////// ///// Q////
  • 140950Z 23007KT 9999 FEW015 SCT022 15/10 Q0988 RMK WHT
  • 140920Z AUTO 22008KT //// ///////// ///// Q////
  • 140850Z 23006KT 9999 SCT015 14/11 Q0999 RMK WHT
  • 140820Z AUTO 22009KT //// ///////// ///// Q////
  • 140750Z 21013KT 9999 SCT015 14/10 Q0998 RMK WHT

TAF TAF EGWC
Valido dal 14 a 12 ore il 14 a 17 ore UTC


141057Z 1412/1417 24012KT 9999 SCT030
TEMPO 1412/1417 6000 SHRA BKN024TCU
PROB30
TEMPO 1412/1417 3000 +SHRA SHGS BKN020CB



MetMap, La meteo Aeronautica in un colpo d'occhio ! - Copyright ORBIFLY Dicembre 2007 - Disclaimer

ORBIFLY MET'MAP TEAM :

Programmazione e sviluppo : Alexandra Zaïnal
Concezione : Baudouin d'Aumeries
Supporto tecnico e logistico : Manuel Goepfert
Aiuto : Marc-Olivier Méhu
Aiuto per la traduzione : Arnaldo La Scala




FONTI E CREDITI :

   NOAA